sensor_id;sensor_type;location;lat;lon;timestamp;pressure;altitude;pressure_sealevel;temperature;humidity
63281;BME280;49406;51.044;3.766;2023-12-07T00:02:05;102076.98;;;1.71;100.00
63281;BME280;49406;51.044;3.766;2023-12-07T00:04:40;102081.14;;;1.71;100.00
63281;BME280;49406;51.044;3.766;2023-12-07T00:07:14;102077.27;;;1.73;100.00
63281;BME280;49406;51.044;3.766;2023-12-07T00:09:49;102086.82;;;1.79;100.00
63281;BME280;49406;51.044;3.766;2023-12-07T00:12:24;102085.44;;;1.90;100.00
63281;BME280;49406;51.044;3.766;2023-12-07T00:14:58;102082.10;;;1.94;100.00
63281;BME280;49406;51.044;3.766;2023-12-07T00:17:33;102078.31;;;2.00;100.00
63281;BME280;49406;51.044;3.766;2023-12-07T00:20:09;102074.13;;;2.04;100.00
63281;BME280;49406;51.044;3.766;2023-12-07T00:22:44;102077.87;;;2.12;100.00
63281;BME280;49406;51.044;3.766;2023-12-07T00:25:24;102084.88;;;2.20;100.00
63281;BME280;49406;51.044;3.766;2023-12-07T00:27:59;102085.58;;;2.25;100.00
63281;BME280;49406;51.044;3.766;2023-12-07T00:30:39;102092.52;;;2.32;100.00
63281;BME280;49406;51.044;3.766;2023-12-07T00:33:16;102092.34;;;2.37;100.00
63281;BME280;49406;51.044;3.766;2023-12-07T00:35:52;102086.55;;;2.33;100.00
63281;BME280;49406;51.044;3.766;2023-12-07T00:38:48;102088.27;;;2.33;100.00
63281;BME280;49406;51.044;3.766;2023-12-07T00:41:34;102088.95;;;2.35;100.00
63281;BME280;49406;51.044;3.766;2023-12-07T00:44:15;102081.55;;;2.44;100.00
63281;BME280;49406;51.044;3.766;2023-12-07T00:46:52;102071.36;;;2.47;100.00
63281;BME280;49406;51.044;3.766;2023-12-07T00:49:37;102068.02;;;2.49;100.00
63281;BME280;49406;51.044;3.766;2023-12-07T00:52:17;102068.48;;;2.51;100.00
63281;BME280;49406;51.044;3.766;2023-12-07T00:54:54;102058.92;;;2.52;100.00
63281;BME280;49406;51.044;3.766;2023-12-07T00:57:37;102059.84;;;2.56;100.00
63281;BME280;49406;51.044;3.766;2023-12-07T01:00:17;102065.91;;;2.59;100.00
63281;BME280;49406;51.044;3.766;2023-12-07T01:02:56;102066.32;;;2.60;100.00
63281;BME280;49406;51.044;3.766;2023-12-07T01:05:31;102057.07;;;2.56;100.00
63281;BME280;49406;51.044;3.766;2023-12-07T01:08:08;102058.09;;;2.55;100.00
63281;BME280;49406;51.044;3.766;2023-12-07T01:10:43;102056.91;;;2.59;100.00
63281;BME280;49406;51.044;3.766;2023-12-07T01:13:18;102060.86;;;2.67;100.00
63281;BME280;49406;51.044;3.766;2023-12-07T01:15:53;102058.48;;;2.68;100.00
63281;BME280;49406;51.044;3.766;2023-12-07T01:18:28;102058.13;;;2.67;100.00
63281;BME280;49406;51.044;3.766;2023-12-07T01:21:03;102058.14;;;2.71;100.00
63281;BME280;49406;51.044;3.766;2023-12-07T01:23:37;102057.30;;;2.77;100.00
63281;BME280;49406;51.044;3.766;2023-12-07T01:26:12;102059.97;;;2.82;100.00
63281;BME280;49406;51.044;3.766;2023-12-07T01:28:46;102055.14;;;2.85;100.00
63281;BME280;49406;51.044;3.766;2023-12-07T01:31:21;102045.14;;;2.82;100.00
63281;BME280;49406;51.044;3.766;2023-12-07T01:33:56;102033.70;;;2.81;100.00
63281;BME280;49406;51.044;3.766;2023-12-07T01:36:30;102034.02;;;2.81;100.00
63281;BME280;49406;51.044;3.766;2023-12-07T01:39:05;102045.91;;;2.84;100.00
63281;BME280;49406;51.044;3.766;2023-12-07T01:41:40;102045.27;;;2.84;100.00
63281;BME280;49406;51.044;3.766;2023-12-07T01:44:14;102049.77;;;2.96;100.00
63281;BME280;49406;51.044;3.766;2023-12-07T01:46:49;102051.70;;;3.00;100.00
63281;BME280;49406;51.044;3.766;2023-12-07T01:49:22;102044.41;;;2.99;100.00
63281;BME280;49406;51.044;3.766;2023-12-07T01:51:57;102041.67;;;3.02;100.00
63281;BME280;49406;51.044;3.766;2023-12-07T01:54:31;102041.54;;;3.06;100.00
63281;BME280;49406;51.044;3.766;2023-12-07T01:57:06;102039.39;;;3.08;100.00
63281;BME280;49406;51.044;3.766;2023-12-07T01:59:41;102033.00;;;3.11;100.00
63281;BME280;49406;51.044;3.766;2023-12-07T02:02:15;102032.25;;;3.13;100.00
63281;BME280;49406;51.044;3.766;2023-12-07T02:04:50;102037.13;;;3.14;100.00
63281;BME280;49406;51.044;3.766;2023-12-07T02:07:25;102041.92;;;3.19;100.00
63281;BME280;49406;51.044;3.766;2023-12-07T02:10:00;102048.77;;;3.23;100.00
63281;BME280;49406;51.044;3.766;2023-12-07T02:12:36;102055.60;;;3.25;100.00
63281;BME280;49406;51.044;3.766;2023-12-07T02:15:11;102058.55;;;3.22;100.00
63281;BME280;49406;51.044;3.766;2023-12-07T02:17:52;102062.23;;;3.23;100.00
63281;BME280;49406;51.044;3.766;2023-12-07T02:20:30;102064.42;;;3.22;100.00
63281;BME280;49406;51.044;3.766;2023-12-07T02:23:06;102060.77;;;3.25;100.00
63281;BME280;49406;51.044;3.766;2023-12-07T02:25:44;102059.09;;;3.32;100.00
63281;BME280;49406;51.044;3.766;2023-12-07T02:28:20;102053.65;;;3.30;100.00
63281;BME280;49406;51.044;3.766;2023-12-07T02:30:55;102051.33;;;3.29;100.00
63281;BME280;49406;51.044;3.766;2023-12-07T02:33:30;102051.62;;;3.34;100.00
63281;BME280;49406;51.044;3.766;2023-12-07T02:36:03;102049.47;;;3.36;100.00
63281;BME280;49406;51.044;3.766;2023-12-07T02:38:38;102049.02;;;3.37;100.00
63281;BME280;49406;51.044;3.766;2023-12-07T02:41:14;102038.35;;;3.32;100.00
63281;BME280;49406;51.044;3.766;2023-12-07T02:43:49;102033.49;;;3.31;100.00
63281;BME280;49406;51.044;3.766;2023-12-07T02:46:25;102037.05;;;3.36;100.00
63281;BME280;49406;51.044;3.766;2023-12-07T02:49:00;102030.11;;;3.39;100.00
63281;BME280;49406;51.044;3.766;2023-12-07T02:51:34;102032.73;;;3.39;100.00
63281;BME280;49406;51.044;3.766;2023-12-07T02:54:09;102039.23;;;3.42;100.00
63281;BME280;49406;51.044;3.766;2023-12-07T02:56:43;102032.98;;;3.47;100.00
63281;BME280;49406;51.044;3.766;2023-12-07T02:59:18;102034.63;;;3.49;100.00
63281;BME280;49406;51.044;3.766;2023-12-07T03:01:52;102034.19;;;3.47;100.00
63281;BME280;49406;51.044;3.766;2023-12-07T03:04:27;102027.42;;;3.47;100.00
63281;BME280;49406;51.044;3.766;2023-12-07T03:07:02;102025.48;;;3.43;100.00
63281;BME280;49406;51.044;3.766;2023-12-07T03:09:37;102038.03;;;3.41;100.00
63281;BME280;49406;51.044;3.766;2023-12-07T03:12:11;102044.09;;;3.42;100.00
63281;BME280;49406;51.044;3.766;2023-12-07T03:14:46;102054.98;;;3.39;100.00
63281;BME280;49406;51.044;3.766;2023-12-07T03:17:19;102064.14;;;3.32;100.00
63281;BME280;49406;51.044;3.766;2023-12-07T03:19:53;102066.84;;;3.31;100.00
63281;BME280;49406;51.044;3.766;2023-12-07T03:22:28;102069.59;;;3.37;100.00
63281;BME280;49406;51.044;3.766;2023-12-07T03:25:03;102073.28;;;3.41;100.00
63281;BME280;49406;51.044;3.766;2023-12-07T03:27:39;102066.15;;;3.44;100.00
63281;BME280;49406;51.044;3.766;2023-12-07T03:30:14;102061.67;;;3.44;100.00
63281;BME280;49406;51.044;3.766;2023-12-07T03:32:49;102062.05;;;3.45;100.00
63281;BME280;49406;51.044;3.766;2023-12-07T03:35:23;102068.64;;;3.48;100.00
63281;BME280;49406;51.044;3.766;2023-12-07T03:37:58;102072.05;;;3.50;100.00
63281;BME280;49406;51.044;3.766;2023-12-07T03:40:32;102065.83;;;3.50;100.00
63281;BME280;49406;51.044;3.766;2023-12-07T03:43:06;102052.39;;;3.45;100.00
63281;BME280;49406;51.044;3.766;2023-12-07T03:45:41;102044.40;;;3.44;100.00
63281;BME280;49406;51.044;3.766;2023-12-07T03:48:15;102034.71;;;3.44;100.00
63281;BME280;49406;51.044;3.766;2023-12-07T03:50:50;102032.34;;;3.45;100.00
63281;BME280;49406;51.044;3.766;2023-12-07T03:53:24;102029.55;;;3.45;100.00
63281;BME280;49406;51.044;3.766;2023-12-07T03:55:59;102032.22;;;3.43;100.00
63281;BME280;49406;51.044;3.766;2023-12-07T03:58:34;102038.35;;;3.41;100.00
63281;BME280;49406;51.044;3.766;2023-12-07T04:01:08;102035.99;;;3.45;100.00
63281;BME280;49406;51.044;3.766;2023-12-07T04:03:43;102032.70;;;3.42;100.00
63281;BME280;49406;51.044;3.766;2023-12-07T04:06:19;102030.98;;;3.39;100.00
63281;BME280;49406;51.044;3.766;2023-12-07T04:08:54;102027.60;;;3.37;100.00
63281;BME280;49406;51.044;3.766;2023-12-07T04:11:29;102027.91;;;3.34;100.00
63281;BME280;49406;51.044;3.766;2023-12-07T04:14:04;102027.60;;;3.37;100.00
63281;BME280;49406;51.044;3.766;2023-12-07T04:16:38;102028.19;;;3.39;100.00
63281;BME280;49406;51.044;3.766;2023-12-07T04:19:13;102022.95;;;3.38;100.00
63281;BME280;49406;51.044;3.766;2023-12-07T04:21:48;102020.91;;;3.42;100.00
63281;BME280;49406;51.044;3.766;2023-12-07T04:24:21;102021.79;;;3.45;100.00
63281;BME280;49406;51.044;3.766;2023-12-07T04:26:56;102021.56;;;3.41;100.00
63281;BME280;49406;51.044;3.766;2023-12-07T04:29:30;102015.94;;;3.36;100.00
63281;BME280;49406;51.044;3.766;2023-12-07T04:32:06;102006.55;;;3.35;100.00
63281;BME280;49406;51.044;3.766;2023-12-07T04:34:40;102004.20;;;3.46;100.00
63281;BME280;49406;51.044;3.766;2023-12-07T04:37:15;102007.28;;;3.51;100.00
63281;BME280;49406;51.044;3.766;2023-12-07T04:39:50;102002.36;;;3.53;100.00
63281;BME280;49406;51.044;3.766;2023-12-07T04:42:24;102002.13;;;3.55;100.00
63281;BME280;49406;51.044;3.766;2023-12-07T04:45:00;102002.33;;;3.55;100.00
63281;BME280;49406;51.044;3.766;2023-12-07T04:47:34;101991.41;;;3.58;100.00
63281;BME280;49406;51.044;3.766;2023-12-07T04:50:10;101991.53;;;3.57;100.00
63281;BME280;49406;51.044;3.766;2023-12-07T04:52:44;101990.92;;;3.59;100.00
63281;BME280;49406;51.044;3.766;2023-12-07T04:55:17;101982.73;;;3.60;100.00
63281;BME280;49406;51.044;3.766;2023-12-07T04:57:52;101981.48;;;3.73;100.00
63281;BME280;49406;51.044;3.766;2023-12-07T05:00:25;101975.69;;;3.78;100.00
63281;BME280;49406;51.044;3.766;2023-12-07T05:03:00;101971.48;;;3.76;100.00
63281;BME280;49406;51.044;3.766;2023-12-07T05:05:36;101980.86;;;3.80;100.00
63281;BME280;49406;51.044;3.766;2023-12-07T05:08:10;101979.70;;;3.78;100.00
63281;BME280;49406;51.044;3.766;2023-12-07T05:10:45;101976.86;;;3.77;100.00
63281;BME280;49406;51.044;3.766;2023-12-07T05:13:20;101971.66;;;3.80;100.00
63281;BME280;49406;51.044;3.766;2023-12-07T05:15:54;101971.07;;;3.88;100.00
63281;BME280;49406;51.044;3.766;2023-12-07T05:18:29;101968.59;;;3.90;100.00
63281;BME280;49406;51.044;3.766;2023-12-07T05:21:04;101964.34;;;3.92;100.00
63281;BME280;49406;51.044;3.766;2023-12-07T05:23:39;101954.29;;;3.91;100.00
63281;BME280;49406;51.044;3.766;2023-12-07T05:26:13;101958.00;;;3.89;100.00
63281;BME280;49406;51.044;3.766;2023-12-07T05:28:48;101953.11;;;3.88;100.00
63281;BME280;49406;51.044;3.766;2023-12-07T05:31:23;101942.56;;;3.85;100.00
63281;BME280;49406;51.044;3.766;2023-12-07T05:33:59;101938.68;;;3.94;100.00
63281;BME280;49406;51.044;3.766;2023-12-07T05:36:34;101936.91;;;3.93;100.00
63281;BME280;49406;51.044;3.766;2023-12-07T05:39:09;101929.65;;;3.93;100.00
63281;BME280;49406;51.044;3.766;2023-12-07T05:41:44;101924.20;;;3.91;100.00
63281;BME280;49406;51.044;3.766;2023-12-07T05:44:20;101918.63;;;3.91;100.00
63281;BME280;49406;51.044;3.766;2023-12-07T05:46:55;101921.12;;;3.88;100.00
63281;BME280;49406;51.044;3.766;2023-12-07T05:49:30;101920.39;;;3.82;100.00
63281;BME280;49406;51.044;3.766;2023-12-07T05:52:06;101922.81;;;3.79;100.00
63281;BME280;49406;51.044;3.766;2023-12-07T05:54:41;101932.16;;;3.82;100.00
63281;BME280;49406;51.044;3.766;2023-12-07T05:57:16;101931.64;;;3.82;100.00
63281;BME280;49406;51.044;3.766;2023-12-07T05:59:51;101943.13;;;3.84;100.00
63281;BME280;49406;51.044;3.766;2023-12-07T06:02:26;101942.28;;;3.84;100.00
63281;BME280;49406;51.044;3.766;2023-12-07T06:05:01;101947.38;;;3.85;100.00
63281;BME280;49406;51.044;3.766;2023-12-07T06:07:37;101946.69;;;3.82;100.00
63281;BME280;49406;51.044;3.766;2023-12-07T06:10:12;101946.14;;;3.78;100.00
63281;BME280;49406;51.044;3.766;2023-12-07T06:12:46;101945.06;;;3.77;100.00
63281;BME280;49406;51.044;3.766;2023-12-07T06:15:21;101943.98;;;3.80;100.00
63281;BME280;49406;51.044;3.766;2023-12-07T06:17:57;101950.54;;;3.86;100.00
63281;BME280;49406;51.044;3.766;2023-12-07T06:20:32;101947.60;;;3.89;100.00
63281;BME280;49406;51.044;3.766;2023-12-07T06:23:08;101950.05;;;3.90;100.00
63281;BME280;49406;51.044;3.766;2023-12-07T06:25:45;101949.85;;;3.86;100.00
63281;BME280;49406;51.044;3.766;2023-12-07T06:28:20;101951.20;;;3.82;100.00
63281;BME280;49406;51.044;3.766;2023-12-07T06:30:55;101946.63;;;3.81;100.00
63281;BME280;49406;51.044;3.766;2023-12-07T06:33:30;101943.81;;;3.86;100.00
63281;BME280;49406;51.044;3.766;2023-12-07T06:36:06;101938.82;;;3.90;100.00
63281;BME280;49406;51.044;3.766;2023-12-07T06:38:40;101934.98;;;3.89;100.00
63281;BME280;49406;51.044;3.766;2023-12-07T06:41:15;101940.52;;;3.92;100.00
63281;BME280;49406;51.044;3.766;2023-12-07T06:43:50;101941.48;;;3.94;100.00
63281;BME280;49406;51.044;3.766;2023-12-07T06:46:24;101937.95;;;3.97;100.00
63281;BME280;49406;51.044;3.766;2023-12-07T06:48:59;101931.87;;;3.93;100.00
63281;BME280;49406;51.044;3.766;2023-12-07T06:51:34;101926.04;;;3.90;100.00
63281;BME280;49406;51.044;3.766;2023-12-07T06:54:09;101921.30;;;3.96;100.00
63281;BME280;49406;51.044;3.766;2023-12-07T06:56:43;101914.15;;;3.92;100.00
63281;BME280;49406;51.044;3.766;2023-12-07T06:59:19;101919.45;;;3.93;100.00
63281;BME280;49406;51.044;3.766;2023-12-07T07:01:54;101924.80;;;3.93;100.00
63281;BME280;49406;51.044;3.766;2023-12-07T07:04:29;101923.98;;;3.94;100.00
63281;BME280;49406;51.044;3.766;2023-12-07T07:07:04;101919.23;;;3.92;100.00
63281;BME280;49406;51.044;3.766;2023-12-07T07:09:39;101914.76;;;3.89;100.00
63281;BME280;49406;51.044;3.766;2023-12-07T07:12:13;101913.16;;;3.86;100.00
63281;BME280;49406;51.044;3.766;2023-12-07T07:14:48;101912.59;;;3.85;100.00
63281;BME280;49406;51.044;3.766;2023-12-07T07:17:23;101912.98;;;3.89;100.00
63281;BME280;49406;51.044;3.766;2023-12-07T07:19:57;101912.75;;;3.91;100.00
63281;BME280;49406;51.044;3.766;2023-12-07T07:22:32;101909.21;;;3.93;100.00
63281;BME280;49406;51.044;3.766;2023-12-07T07:25:08;101912.59;;;3.95;100.00
63281;BME280;49406;51.044;3.766;2023-12-07T07:27:43;101902.33;;;3.94;100.00
63281;BME280;49406;51.044;3.766;2023-12-07T07:30:17;101895.17;;;3.89;100.00
63281;BME280;49406;51.044;3.766;2023-12-07T07:32:52;101892.86;;;3.88;100.00
63281;BME280;49406;51.044;3.766;2023-12-07T07:35:27;101898.49;;;3.97;100.00
63281;BME280;49406;51.044;3.766;2023-12-07T07:38:02;101896.30;;;3.98;100.00
63281;BME280;49406;51.044;3.766;2023-12-07T07:40:36;101898.98;;;4.03;100.00
63281;BME280;49406;51.044;3.766;2023-12-07T07:43:11;101902.53;;;4.04;100.00
63281;BME280;49406;51.044;3.766;2023-12-07T07:45:46;101902.64;;;4.03;100.00
63281;BME280;49406;51.044;3.766;2023-12-07T07:48:20;101905.66;;;4.02;100.00
63281;BME280;49406;51.044;3.766;2023-12-07T07:50:55;101900.89;;;4.03;100.00
63281;BME280;49406;51.044;3.766;2023-12-07T07:53:29;101891.92;;;4.10;100.00
63281;BME280;49406;51.044;3.766;2023-12-07T07:56:04;101889.23;;;4.11;100.00
63281;BME280;49406;51.044;3.766;2023-12-07T07:58:39;101890.14;;;4.12;100.00
63281;BME280;49406;51.044;3.766;2023-12-07T08:01:14;101893.59;;;4.16;100.00
63281;BME280;49406;51.044;3.766;2023-12-07T08:03:48;101893.81;;;4.17;100.00
63281;BME280;49406;51.044;3.766;2023-12-07T08:06:23;101891.00;;;4.13;100.00
63281;BME280;49406;51.044;3.766;2023-12-07T08:08:57;101886.45;;;4.12;100.00
63281;BME280;49406;51.044;3.766;2023-12-07T08:11:32;101888.33;;;4.14;100.00
63281;BME280;49406;51.044;3.766;2023-12-07T08:14:07;101890.39;;;4.14;100.00
63281;BME280;49406;51.044;3.766;2023-12-07T08:16:45;101896.79;;;4.14;100.00
63281;BME280;49406;51.044;3.766;2023-12-07T08:19:20;101897.39;;;4.09;100.00
63281;BME280;49406;51.044;3.766;2023-12-07T08:21:55;101899.55;;;4.04;100.00
63281;BME280;49406;51.044;3.766;2023-12-07T08:24:29;101891.98;;;4.01;100.00
63281;BME280;49406;51.044;3.766;2023-12-07T08:27:04;101899.17;;;4.06;100.00
63281;BME280;49406;51.044;3.766;2023-12-07T08:29:39;101897.28;;;4.06;100.00
63281;BME280;49406;51.044;3.766;2023-12-07T08:32:14;101895.70;;;4.06;100.00
63281;BME280;49406;51.044;3.766;2023-12-07T08:34:49;101890.62;;;4.08;100.00
63281;BME280;49406;51.044;3.766;2023-12-07T08:37:23;101886.29;;;4.08;100.00
63281;BME280;49406;51.044;3.766;2023-12-07T08:39:58;101888.38;;;4.09;100.00
63281;BME280;49406;51.044;3.766;2023-12-07T08:42:33;101893.30;;;4.06;100.00
63281;BME280;49406;51.044;3.766;2023-12-07T08:45:09;101900.73;;;4.03;100.00
63281;BME280;49406;51.044;3.766;2023-12-07T08:47:43;101899.40;;;4.07;100.00
63281;BME280;49406;51.044;3.766;2023-12-07T08:50:18;101900.77;;;4.10;100.00
63281;BME280;49406;51.044;3.766;2023-12-07T08:52:53;101896.67;;;4.12;100.00
63281;BME280;49406;51.044;3.766;2023-12-07T08:55:27;101886.77;;;4.14;100.00
63281;BME280;49406;51.044;3.766;2023-12-07T08:58:03;101882.57;;;4.13;100.00
63281;BME280;49406;51.044;3.766;2023-12-07T09:00:39;101876.86;;;4.10;100.00
63281;BME280;49406;51.044;3.766;2023-12-07T09:03:13;101874.48;;;4.14;100.00
63281;BME280;49406;51.044;3.766;2023-12-07T09:05:48;101867.85;;;4.13;100.00
63281;BME280;49406;51.044;3.766;2023-12-07T09:08:23;101868.37;;;4.17;100.00
63281;BME280;49406;51.044;3.766;2023-12-07T09:10:57;101865.93;;;4.19;100.00
63281;BME280;49406;51.044;3.766;2023-12-07T09:13:32;101868.56;;;4.20;100.00
63281;BME280;49406;51.044;3.766;2023-12-07T09:16:08;101872.52;;;4.20;100.00
63281;BME280;49406;51.044;3.766;2023-12-07T09:18:43;101868.62;;;4.18;100.00
63281;BME280;49406;51.044;3.766;2023-12-07T09:21:19;101861.52;;;4.18;100.00
63281;BME280;49406;51.044;3.766;2023-12-07T09:23:54;101852.05;;;4.22;100.00
63281;BME280;49406;51.044;3.766;2023-12-07T09:26:28;101838.80;;;4.24;100.00
63281;BME280;49406;51.044;3.766;2023-12-07T09:29:03;101831.45;;;4.26;100.00
63281;BME280;49406;51.044;3.766;2023-12-07T09:31:39;101825.55;;;4.29;100.00
63281;BME280;49406;51.044;3.766;2023-12-07T09:34:13;101826.81;;;4.27;100.00
63281;BME280;49406;51.044;3.766;2023-12-07T09:36:51;101827.25;;;4.32;100.00
63281;BME280;49406;51.044;3.766;2023-12-07T09:39:39;101831.27;;;4.40;100.00
63281;BME280;49406;51.044;3.766;2023-12-07T09:42:14;101823.61;;;4.46;100.00
63281;BME280;49406;51.044;3.766;2023-12-07T09:44:49;101809.23;;;4.49;100.00
63281;BME280;49406;51.044;3.766;2023-12-07T09:47:23;101809.15;;;4.51;100.00
63281;BME280;49406;51.044;3.766;2023-12-07T09:49:59;101808.64;;;4.63;100.00
63281;BME280;49406;51.044;3.766;2023-12-07T09:52:34;101801.13;;;4.72;100.00
63281;BME280;49406;51.044;3.766;2023-12-07T09:55:09;101799.19;;;4.75;100.00
63281;BME280;49406;51.044;3.766;2023-12-07T09:57:45;101798.34;;;4.79;100.00
63281;BME280;49406;51.044;3.766;2023-12-07T10:00:20;101804.16;;;4.81;100.00
63281;BME280;49406;51.044;3.766;2023-12-07T10:02:54;101806.86;;;4.80;100.00
63281;BME280;49406;51.044;3.766;2023-12-07T10:05:29;101804.23;;;4.83;100.00
63281;BME280;49406;51.044;3.766;2023-12-07T10:08:04;101800.67;;;4.92;100.00
63281;BME280;49406;51.044;3.766;2023-12-07T10:10:40;101793.54;;;4.95;100.00
63281;BME280;49406;51.044;3.766;2023-12-07T10:13:16;101788.02;;;4.96;100.00
63281;BME280;49406;51.044;3.766;2023-12-07T10:16:07;101788.39;;;5.00;100.00
63281;BME280;49406;51.044;3.766;2023-12-07T10:18:41;101775.82;;;5.02;100.00
63281;BME280;49406;51.044;3.766;2023-12-07T10:21:16;101767.23;;;5.07;100.00
63281;BME280;49406;51.044;3.766;2023-12-07T10:23:50;101760.73;;;5.13;100.00
63281;BME280;49406;51.044;3.766;2023-12-07T10:26:26;101756.71;;;5.16;100.00
63281;BME280;49406;51.044;3.766;2023-12-07T10:29:01;101758.48;;;5.21;100.00
63281;BME280;49406;51.044;3.766;2023-12-07T10:31:36;101754.86;;;5.21;100.00
63281;BME280;49406;51.044;3.766;2023-12-07T10:34:11;101756.71;;;5.20;100.00
63281;BME280;49406;51.044;3.766;2023-12-07T10:36:46;101748.27;;;5.18;100.00
63281;BME280;49406;51.044;3.766;2023-12-07T10:39:21;101745.86;;;5.26;100.00
63281;BME280;49406;51.044;3.766;2023-12-07T10:42:02;101744.84;;;5.26;100.00
63281;BME280;49406;51.044;3.766;2023-12-07T10:44:39;101737.13;;;5.24;100.00
63281;BME280;49406;51.044;3.766;2023-12-07T10:47:16;101734.91;;;5.25;100.00
63281;BME280;49406;51.044;3.766;2023-12-07T10:49:54;101734.16;;;5.23;100.00
63281;BME280;49406;51.044;3.766;2023-12-07T10:52:33;101728.77;;;5.31;100.00
63281;BME280;49406;51.044;3.766;2023-12-07T10:55:15;101721.92;;;5.37;100.00
63281;BME280;49406;51.044;3.766;2023-12-07T10:57:53;101713.77;;;5.37;100.00
63281;BME280;49406;51.044;3.766;2023-12-07T11:00:30;101705.77;;;5.40;100.00
63281;BME280;49406;51.044;3.766;2023-12-07T11:03:05;101700.80;;;5.46;100.00
63281;BME280;49406;51.044;3.766;2023-12-07T11:05:40;101692.10;;;5.54;100.00
63281;BME280;49406;51.044;3.766;2023-12-07T11:08:21;101688.69;;;5.63;100.00
63281;BME280;49406;51.044;3.766;2023-12-07T11:11:04;101685.48;;;5.69;100.00
63281;BME280;49406;51.044;3.766;2023-12-07T11:13:44;101685.95;;;5.77;100.00
63281;BME280;49406;51.044;3.766;2023-12-07T11:16:30;101681.70;;;5.87;100.00
63281;BME280;49406;51.044;3.766;2023-12-07T11:19:05;101681.65;;;5.94;100.00
63281;BME280;49406;51.044;3.766;2023-12-07T11:21:39;101681.52;;;5.99;100.00
63281;BME280;49406;51.044;3.766;2023-12-07T11:24:17;101675.73;;;6.02;100.00
63281;BME280;49406;51.044;3.766;2023-12-07T11:26:53;101671.60;;;6.03;100.00
63281;BME280;49406;51.044;3.766;2023-12-07T11:29:31;101664.23;;;6.09;100.00
63281;BME280;49406;51.044;3.766;2023-12-07T11:32:04;101660.84;;;6.12;100.00
63281;BME280;49406;51.044;3.766;2023-12-07T11:34:39;101665.77;;;6.14;100.00
63281;BME280;49406;51.044;3.766;2023-12-07T11:37:14;101655.11;;;6.12;100.00
63281;BME280;49406;51.044;3.766;2023-12-07T11:39:49;101653.11;;;6.18;100.00
63281;BME280;49406;51.044;3.766;2023-12-07T11:42:24;101647.70;;;6.22;100.00
63281;BME280;49406;51.044;3.766;2023-12-07T11:45:00;101640.23;;;6.26;100.00
63281;BME280;49406;51.044;3.766;2023-12-07T11:47:36;101632.46;;;6.23;100.00
63281;BME280;49406;51.044;3.766;2023-12-07T11:50:13;101626.61;;;6.20;100.00
63281;BME280;49406;51.044;3.766;2023-12-07T11:52:47;101624.21;;;6.30;100.00
63281;BME280;49406;51.044;3.766;2023-12-07T11:55:22;101615.17;;;6.34;100.00
63281;BME280;49406;51.044;3.766;2023-12-07T11:57:57;101605.40;;;6.33;100.00
63281;BME280;49406;51.044;3.766;2023-12-07T12:00:30;101596.30;;;6.31;100.00
63281;BME280;49406;51.044;3.766;2023-12-07T12:03:05;101592.21;;;6.33;100.00
63281;BME280;49406;51.044;3.766;2023-12-07T12:05:40;101589.27;;;6.39;100.00
63281;BME280;49406;51.044;3.766;2023-12-07T12:08:15;101580.96;;;6.39;100.00
63281;BME280;49406;51.044;3.766;2023-12-07T12:10:51;101573.14;;;6.39;100.00
63281;BME280;49406;51.044;3.766;2023-12-07T12:13:29;101567.40;;;6.34;100.00
63281;BME280;49406;51.044;3.766;2023-12-07T12:16:05;101565.61;;;6.32;100.00
63281;BME280;49406;51.044;3.766;2023-12-07T12:18:39;101558.67;;;6.38;100.00
63281;BME280;49406;51.044;3.766;2023-12-07T12:21:14;101549.30;;;6.42;100.00
63281;BME280;49406;51.044;3.766;2023-12-07T12:23:51;101537.41;;;6.40;100.00
63281;BME280;49406;51.044;3.766;2023-12-07T12:26:26;101534.88;;;6.38;100.00
63281;BME280;49406;51.044;3.766;2023-12-07T12:29:00;101525.22;;;6.35;100.00
63281;BME280;49406;51.044;3.766;2023-12-07T12:31:36;101520.73;;;6.45;100.00
63281;BME280;49406;51.044;3.766;2023-12-07T12:34:12;101515.66;;;6.49;100.00
63281;BME280;49406;51.044;3.766;2023-12-07T12:36:46;101511.67;;;6.44;100.00
63281;BME280;49406;51.044;3.766;2023-12-07T12:39:23;101508.11;;;6.41;100.00
63281;BME280;49406;51.044;3.766;2023-12-07T12:42:02;101504.84;;;6.38;100.00
63281;BME280;49406;51.044;3.766;2023-12-07T12:44:37;101504.15;;;6.48;100.00
63281;BME280;49406;51.044;3.766;2023-12-07T12:47:12;101503.70;;;6.49;100.00
63281;BME280;49406;51.044;3.766;2023-12-07T12:49:47;101490.23;;;6.47;100.00
63281;BME280;49406;51.044;3.766;2023-12-07T12:52:23;101492.77;;;6.50;100.00
63281;BME280;49406;51.044;3.766;2023-12-07T12:54:58;101488.16;;;6.53;100.00
63281;BME280;49406;51.044;3.766;2023-12-07T12:57:33;101478.73;;;6.51;100.00
63281;BME280;49406;51.044;3.766;2023-12-07T13:00:11;101481.29;;;6.54;100.00
63281;BME280;49406;51.044;3.766;2023-12-07T13:02:46;101483.90;;;6.50;100.00
63281;BME280;49406;51.044;3.766;2023-12-07T13:05:21;101478.22;;;6.46;100.00
63281;BME280;49406;51.044;3.766;2023-12-07T13:07:56;101478.73;;;6.51;100.00
63281;BME280;49406;51.044;3.766;2023-12-07T13:10:33;101476.55;;;6.57;100.00
63281;BME280;49406;51.044;3.766;2023-12-07T13:13:08;101485.84;;;6.66;100.00
63281;BME280;49406;51.044;3.766;2023-12-07T13:15:42;101482.84;;;6.64;100.00
63281;BME280;49406;51.044;3.766;2023-12-07T13:18:17;101479.48;;;6.62;100.00
63281;BME280;49406;51.044;3.766;2023-12-07T13:20:52;101472.83;;;6.61;100.00
63281;BME280;49406;51.044;3.766;2023-12-07T13:23:27;101469.55;;;6.62;100.00
63281;BME280;49406;51.044;3.766;2023-12-07T13:26:01;101466.05;;;6.66;100.00
63281;BME280;49406;51.044;3.766;2023-12-07T13:28:36;101459.99;;;6.72;100.00
63281;BME280;49406;51.044;3.766;2023-12-07T13:31:10;101457.78;;;6.73;100.00
63281;BME280;49406;51.044;3.766;2023-12-07T13:33:45;101448.36;;;6.67;100.00